createdAt,value
2022-11-24T00:01:21.589Z,7.66
2022-11-24T00:04:03.977Z,7.91
2022-11-24T00:06:32.813Z,7.51
2022-11-24T00:08:59.745Z,8.03
2022-11-24T00:11:31.679Z,7.49
2022-11-24T00:13:59.295Z,7.73
2022-11-24T00:16:31.264Z,8.15
2022-11-24T00:19:00.304Z,7.89
2022-11-24T00:21:28.969Z,8.08
2022-11-24T00:23:55.896Z,8.19
2022-11-24T00:26:31.742Z,7.63
2022-11-24T00:29:02.378Z,7.63
2022-11-24T00:31:35.227Z,8.16
2022-11-24T00:34:07.493Z,8.22
2022-11-24T00:36:35.888Z,8.16
2022-11-24T00:39:06.209Z,7.87
2022-11-24T00:41:33.488Z,8.05
2022-11-24T00:44:00.925Z,8.38
2022-11-24T00:46:28.545Z,8.02
2022-11-24T00:48:55.759Z,8.37
2022-11-24T00:51:24.776Z,8.18
2022-11-24T00:53:53.199Z,8.28
2022-11-24T00:56:20.052Z,8.08
2022-11-24T00:58:46.690Z,8.65
2022-11-24T01:01:16.754Z,8.21
2022-11-24T01:03:44.270Z,7.99
2022-11-24T01:06:13.735Z,8.28
2022-11-24T01:08:41.109Z,8.27
2022-11-24T01:11:23.421Z,8.25
2022-11-24T01:13:57.694Z,7.81
2022-11-24T01:16:34.308Z,8.19
2022-11-24T01:19:01.483Z,8.13
2022-11-24T01:21:28.227Z,7.48
2022-11-24T01:23:54.983Z,8.01
2022-11-24T01:26:22.394Z,7.98
2022-11-24T01:28:53.900Z,7.46
2022-11-24T01:31:22.702Z,7.48
2022-11-24T01:33:49.945Z,8.01
2022-11-24T01:36:16.706Z,7.93
2022-11-24T01:38:43.428Z,7.40
2022-11-24T01:41:16.720Z,7.41
2022-11-24T01:43:44.889Z,7.34
2022-11-24T01:46:24.168Z,7.33
2022-11-24T01:49:09.090Z,7.76
2022-11-24T01:51:39.728Z,7.31
2022-11-24T01:54:15.677Z,7.48
2022-11-24T01:56:46.442Z,7.14
2022-11-24T01:59:17.240Z,7.44
2022-11-24T02:01:44.153Z,7.55
2022-11-24T02:04:14.187Z,7.95
2022-11-24T02:06:43.728Z,7.57
2022-11-24T02:09:19.798Z,7.88
2022-11-24T02:11:47.329Z,7.80
2022-11-24T02:14:17.722Z,7.37
2022-11-24T02:16:49.751Z,7.73
2022-11-24T02:19:39.965Z,7.82
2022-11-24T02:22:30.980Z,8.09
2022-11-24T02:25:40.322Z,8.04
2022-11-24T02:28:22.013Z,7.56
2022-11-24T02:30:50.749Z,7.87
2022-11-24T02:33:18.841Z,7.39
2022-11-24T02:35:46.490Z,7.53
2022-11-24T02:38:13.773Z,7.74
2022-11-24T02:40:44.424Z,7.70
2022-11-24T02:43:16.910Z,7.65
2022-11-24T02:45:43.535Z,8.14
2022-11-24T02:48:11.186Z,7.59
2022-11-24T02:50:37.924Z,7.62
2022-11-24T02:53:04.552Z,7.35
2022-11-24T02:55:31.229Z,7.00
2022-11-24T02:57:57.829Z,7.28
2022-11-24T03:00:24.559Z,7.08
2022-11-24T03:02:51.247Z,7.38
2022-11-24T03:05:18.131Z,7.43
2022-11-24T03:07:44.865Z,7.38
2022-11-24T03:10:11.627Z,7.45
2022-11-24T03:12:38.216Z,7.36
2022-11-24T03:15:06.240Z,7.31
2022-11-24T03:17:32.916Z,7.49
2022-11-24T03:20:04.780Z,7.55
2022-11-24T03:22:31.926Z,7.52
2022-11-24T03:24:59.198Z,7.74
2022-11-24T03:27:26.165Z,7.88
2022-11-24T03:29:52.850Z,7.69
2022-11-24T03:32:19.855Z,7.77
2022-11-24T03:34:46.523Z,8.32
2022-11-24T03:37:14.645Z,8.06
2022-11-24T03:39:42.401Z,7.71
2022-11-24T03:42:09.114Z,7.94
2022-11-24T03:44:35.975Z,6.90
2022-11-24T03:47:02.750Z,7.73
2022-11-24T03:49:29.377Z,7.88
2022-11-24T03:51:56.084Z,7.74
2022-11-24T03:54:23.013Z,7.97
2022-11-24T03:56:49.685Z,7.87
2022-11-24T03:59:16.940Z,7.11
2022-11-24T04:01:43.644Z,7.73
2022-11-24T04:04:13.810Z,7.26
2022-11-24T04:06:40.506Z,7.56
2022-11-24T04:09:07.993Z,7.31
2022-11-24T04:11:53.209Z,6.96
2022-11-24T04:14:20.919Z,7.27
2022-11-24T04:16:47.487Z,7.28
2022-11-24T04:19:14.033Z,7.24
2022-11-24T04:21:41.626Z,7.76
2022-11-24T04:24:08.150Z,7.43
2022-11-24T04:26:36.338Z,7.81
2022-11-24T04:29:02.963Z,7.77
2022-11-24T04:31:29.543Z,8.02
2022-11-24T04:33:56.097Z,7.63
2022-11-24T04:36:22.646Z,7.71
2022-11-24T04:39:23.457Z,7.98
2022-11-24T04:41:35.665Z,8.21
2022-11-24T04:44:02.193Z,7.84
2022-11-24T04:46:28.775Z,8.05
2022-11-24T04:48:55.384Z,8.14
2022-11-24T04:51:22.926Z,8.47
2022-11-24T04:53:49.458Z,8.50
2022-11-24T04:56:16.945Z,8.22
2022-11-24T04:58:43.444Z,8.10
2022-11-24T05:01:10.024Z,8.53
2022-11-24T05:03:36.687Z,8.51
2022-11-24T05:06:03.652Z,8.52
2022-11-24T05:08:30.115Z,8.47
2022-11-24T05:10:56.663Z,8.35
2022-11-24T05:13:23.349Z,8.59
2022-11-24T05:15:49.866Z,8.34
2022-11-24T05:18:16.572Z,8.46
2022-11-24T05:20:44.729Z,8.84
2022-11-24T05:23:12.076Z,8.33
2022-11-24T05:25:39.731Z,8.52
2022-11-24T05:28:11.869Z,8.93
2022-11-24T05:30:40.554Z,8.87
2022-11-24T05:33:18.875Z,8.41
2022-11-24T05:35:49.155Z,8.38
2022-11-24T05:38:18.290Z,8.74
2022-11-24T05:40:45.029Z,8.94
2022-11-24T05:43:12.375Z,8.20
2022-11-24T05:45:39.272Z,8.63
2022-11-24T05:48:12.431Z,8.28
2022-11-24T05:50:39.445Z,8.44
2022-11-24T05:53:08.119Z,8.88
2022-11-24T05:55:35.177Z,8.44
2022-11-24T05:58:03.974Z,8.66
2022-11-24T06:00:31.789Z,8.96
2022-11-24T06:02:59.317Z,8.55
2022-11-24T06:05:27.233Z,8.34
2022-11-24T06:07:54.445Z,8.59
2022-11-24T06:10:23.868Z,8.79
2022-11-24T06:12:50.514Z,8.53
2022-11-24T06:15:17.402Z,8.51
2022-11-24T06:17:44.148Z,8.38
2022-11-24T06:20:11.499Z,8.84
2022-11-24T06:22:38.033Z,8.53
2022-11-24T06:25:05.023Z,8.70
2022-11-24T06:27:32.317Z,8.34
2022-11-24T06:29:58.838Z,8.96
2022-11-24T06:32:25.438Z,8.95
2022-11-24T06:34:51.977Z,8.55
2022-11-24T06:37:18.560Z,9.11
2022-11-24T06:39:45.036Z,8.80
2022-11-24T06:42:11.626Z,8.66
2022-11-24T06:44:38.098Z,8.58
2022-11-24T06:47:04.912Z,9.02
2022-11-24T06:49:32.391Z,8.92
2022-11-24T06:51:58.941Z,8.97
2022-11-24T06:54:25.449Z,8.81
2022-11-24T06:56:59.470Z,8.43
2022-11-24T06:59:26.542Z,8.74
2022-11-24T07:01:53.324Z,8.95
2022-11-24T07:04:20.166Z,8.62
2022-11-24T07:06:46.756Z,9.23
2022-11-24T07:09:13.605Z,8.87
2022-11-24T07:11:40.832Z,9.40
2022-11-24T07:14:07.673Z,9.22
2022-11-24T07:16:35.699Z,8.86
2022-11-24T07:19:02.779Z,9.44
2022-11-24T07:21:30.780Z,9.08
2022-11-24T07:23:58.077Z,9.55
2022-11-24T07:26:25.269Z,9.58
2022-11-24T07:28:52.188Z,8.81
2022-11-24T07:31:21.448Z,9.57
2022-11-24T07:33:52.644Z,9.47
2022-11-24T07:36:19.550Z,9.00
2022-11-24T07:38:46.186Z,8.86
2022-11-24T07:41:17.869Z,9.20
2022-11-24T07:43:44.824Z,9.37
2022-11-24T07:46:14.455Z,9.24
2022-11-24T07:48:41.047Z,9.45
2022-11-24T07:51:08.265Z,9.69
2022-11-24T07:53:35.694Z,9.72
2022-11-24T07:56:04.104Z,9.65
2022-11-24T07:58:33.352Z,9.23
2022-11-24T08:01:08.114Z,8.99
2022-11-24T08:03:35.846Z,9.27
2022-11-24T08:08:49.334Z,9.11
2022-11-24T08:11:17.754Z,8.83
2022-11-24T08:13:44.560Z,8.87
2022-11-24T08:16:17.816Z,9.21
2022-11-24T08:18:48.982Z,9.51
2022-11-24T08:21:16.776Z,9.37
2022-11-24T08:23:43.283Z,9.17
2022-11-24T08:26:15.688Z,9.54
2022-11-24T08:28:42.562Z,9.84
2022-11-24T08:31:12.411Z,9.83
2022-11-24T08:33:39.476Z,9.48
2022-11-24T08:36:17.359Z,9.64
2022-11-24T08:38:44.780Z,9.53
2022-11-24T08:41:14.589Z,10.27
2022-11-24T08:43:41.230Z,9.79
2022-11-24T08:46:10.657Z,10.13
2022-11-24T08:48:37.523Z,9.63
2022-11-24T08:51:12.082Z,9.36
2022-11-24T08:53:39.660Z,9.42
2022-11-24T08:56:07.317Z,9.78
2022-11-24T08:58:34.248Z,9.86
2022-11-24T09:01:04.937Z,9.77
2022-11-24T09:03:31.743Z,9.65
2022-11-24T09:05:58.296Z,9.76
2022-11-24T09:08:24.883Z,10.17
2022-11-24T09:10:51.622Z,10.36
2022-11-24T09:13:18.181Z,10.31
2022-11-24T09:15:44.628Z,9.88
2022-11-24T09:18:11.168Z,10.03
2022-11-24T09:20:38.725Z,10.30
2022-11-24T09:23:05.498Z,10.62
2022-11-24T09:25:33.128Z,10.57
2022-11-24T09:27:59.944Z,10.66
2022-11-24T09:30:26.945Z,11.17
2022-11-24T09:32:56.481Z,11.43
2022-11-24T09:35:23.424Z,11.47
2022-11-24T09:37:49.872Z,11.90
2022-11-24T09:40:17.408Z,13.34
2022-11-24T09:42:58.071Z,14.01
2022-11-24T09:46:04.030Z,13.89
2022-11-24T09:48:35.817Z,14.66
2022-11-24T09:51:04.323Z,15.12
2022-11-24T09:53:53.743Z,15.05
2022-11-24T09:56:22.937Z,15.81
2022-11-24T09:58:58.875Z,15.47
2022-11-24T10:01:33.550Z,16.11
2022-11-24T10:04:06.401Z,15.13
2022-11-24T10:06:48.055Z,15.83
2022-11-24T10:10:19.758Z,16.64
2022-11-24T10:13:08.189Z,16.70
2022-11-24T10:16:04.418Z,16.58
2022-11-24T10:18:45.364Z,17.44
2022-11-24T10:21:42.653Z,17.30
2022-11-24T10:24:32.162Z,17.67
2022-11-24T10:27:03.951Z,17.63
2022-11-24T10:29:40.848Z,16.40
2022-11-24T10:32:24.129Z,16.86
2022-11-24T10:34:50.945Z,16.35
2022-11-24T10:37:28.410Z,16.24
2022-11-24T10:40:33.500Z,17.15
2022-11-24T10:43:00.351Z,16.53
2022-11-24T10:45:28.337Z,17.21
2022-11-24T10:47:55.161Z,16.67
2022-11-24T10:50:32.198Z,16.46
2022-11-24T10:53:26.588Z,17.62
2022-11-24T10:55:56.226Z,17.69
2022-11-24T10:58:38.067Z,17.52
2022-11-24T11:01:14.151Z,18.05
2022-11-24T11:03:48.866Z,18.17
2022-11-24T11:06:21.940Z,18.07
2022-11-24T11:08:48.687Z,18.55
2022-11-24T11:11:29.057Z,18.57
2022-11-24T11:14:05.018Z,17.77
2022-11-24T11:16:51.848Z,18.06
2022-11-24T11:20:00.274Z,17.90
2022-11-24T11:22:31.022Z,17.23
2022-11-24T11:25:09.734Z,17.89
2022-11-24T11:27:37.537Z,18.56
2022-11-24T11:36:11.055Z,19.99
2022-11-24T11:38:40.319Z,20.23
2022-11-24T11:41:14.356Z,20.39
2022-11-24T11:43:43.384Z,21.04
2022-11-24T11:46:13.164Z,21.93
2022-11-24T11:48:44.765Z,21.33
2022-11-24T11:51:23.939Z,22.24
2022-11-24T11:53:57.770Z,20.78
2022-11-24T11:56:28.085Z,19.60
2022-11-24T11:59:38.004Z,17.95
2022-11-24T12:02:33.670Z,18.20
2022-11-24T12:05:05.162Z,16.44
2022-11-24T12:08:10.753Z,15.75
2022-11-24T12:10:45.915Z,14.54
2022-11-24T12:13:40.807Z,14.21
2022-11-24T12:16:45.849Z,14.43
2022-11-24T12:19:24.423Z,13.43
2022-11-24T12:22:04.171Z,13.39
2022-11-24T12:24:42.849Z,13.70
2022-11-24T12:27:23.171Z,13.65
2022-11-24T12:30:04.536Z,13.47
2022-11-24T12:32:58.258Z,13.89
2022-11-24T12:35:46.310Z,13.78
2022-11-24T12:38:29.617Z,14.94
2022-11-24T12:44:04.843Z,17.02
2022-11-24T12:46:54.741Z,17.20
2022-11-24T12:49:37.018Z,18.66
2022-11-24T12:52:14.503Z,19.74
2022-11-24T12:54:41.208Z,20.77
2022-11-24T12:57:16.766Z,20.78
2022-11-24T13:00:06.750Z,21.58
2022-11-24T13:02:55.193Z,21.59
2022-11-24T13:06:01.029Z,20.98
2022-11-24T13:08:28.908Z,20.38
2022-11-24T13:11:21.240Z,20.42
2022-11-24T13:14:15.399Z,20.32
2022-11-24T13:17:21.700Z,18.69
2022-11-24T13:19:40.783Z,17.70
2022-11-24T13:22:07.163Z,17.94
2022-11-24T13:24:39.165Z,16.77
2022-11-24T13:27:26.495Z,16.42
2022-11-24T13:29:54.056Z,15.70
2022-11-24T13:32:23.493Z,15.88
2022-11-24T13:34:54.673Z,15.69
2022-11-24T13:37:33.610Z,15.09
2022-11-24T13:40:11.562Z,14.77
2022-11-24T13:42:57.079Z,14.52
2022-11-24T13:45:38.809Z,14.36
2022-11-24T13:48:22.284Z,14.03
2022-11-24T13:50:49.391Z,14.23
2022-11-24T13:53:49.092Z,14.27
2022-11-24T13:56:15.510Z,13.72
2022-11-24T13:58:46.462Z,14.22
2022-11-24T14:01:28.920Z,14.10
2022-11-24T14:04:29.510Z,13.21
2022-11-24T14:06:54.798Z,13.36
2022-11-24T14:09:45.779Z,13.15
2022-11-24T14:12:24.216Z,12.37
2022-11-24T14:14:52.796Z,12.24
2022-11-24T14:17:20.628Z,11.83
2022-11-24T14:19:49.423Z,11.84
2022-11-24T14:22:19.440Z,12.42
2022-11-24T14:24:52.768Z,12.56
2022-11-24T14:27:27.621Z,12.56
2022-11-24T14:29:56.434Z,12.97
2022-11-24T14:32:23.785Z,11.96
2022-11-24T14:34:51.999Z,12.11
2022-11-24T14:37:21.571Z,11.69
2022-11-24T14:39:48.152Z,11.22
2022-11-24T14:42:23.987Z,11.04
2022-11-24T14:45:01.861Z,11.32
2022-11-24T14:47:31.839Z,11.21
2022-11-24T14:50:16.171Z,10.23
2022-11-24T14:52:52.245Z,10.29
2022-11-24T14:55:30.629Z,10.30
2022-11-24T14:57:59.668Z,9.95
2022-11-24T15:00:32.124Z,10.42
2022-11-24T15:03:01.810Z,10.38
2022-11-24T15:05:55.351Z,10.26
2022-11-24T15:08:25.504Z,9.68
2022-11-24T15:10:58.132Z,9.64
2022-11-24T15:13:24.999Z,9.98
2022-11-24T15:16:01.769Z,9.28
2022-11-24T15:18:36.179Z,9.38
2022-11-24T15:21:03.456Z,9.22
2022-11-24T15:23:31.812Z,9.51
2022-11-24T15:26:18.233Z,9.36
2022-11-24T15:28:47.778Z,8.72
2022-11-24T15:31:14.679Z,8.55
2022-11-24T15:33:42.149Z,8.45
2022-11-24T15:36:08.777Z,8.37
2022-11-24T15:38:37.259Z,8.31
2022-11-24T15:41:25.536Z,8.26
2022-11-24T15:43:58.717Z,8.54
2022-11-24T15:46:37.510Z,8.25
2022-11-24T15:49:05.680Z,7.91
2022-11-24T15:51:32.537Z,7.68
2022-11-24T15:54:01.401Z,8.38
2022-11-24T15:56:33.937Z,8.36
2022-11-24T15:59:01.427Z,8.04
2022-11-24T16:01:31.435Z,8.56
2022-11-24T16:03:59.651Z,8.11
2022-11-24T16:06:26.185Z,8.06
2022-11-24T16:08:53.713Z,7.99
2022-11-24T16:11:20.799Z,7.75
2022-11-24T16:13:52.297Z,7.99
2022-11-24T16:16:19.976Z,8.43
2022-11-24T16:18:46.538Z,8.30
2022-11-24T16:21:13.063Z,8.25
2022-11-24T16:23:39.607Z,8.22
2022-11-24T16:26:07.117Z,8.01
2022-11-24T16:28:33.628Z,8.09
2022-11-24T16:31:00.203Z,7.40
2022-11-24T16:33:30.771Z,7.55
2022-11-24T16:35:57.305Z,7.58
2022-11-24T16:38:24.852Z,7.87
2022-11-24T16:40:53.022Z,7.75
2022-11-24T16:43:20.085Z,7.34
2022-11-24T16:45:52.529Z,7.87
2022-11-24T16:48:19.067Z,7.39
2022-11-24T16:50:45.603Z,7.83
2022-11-24T16:53:12.180Z,7.47
2022-11-24T16:55:39.703Z,7.81
2022-11-24T16:58:06.259Z,7.77
2022-11-24T17:00:32.769Z,7.79
2022-11-24T17:02:59.308Z,7.37
2022-11-24T17:05:25.848Z,7.41
2022-11-24T17:07:52.441Z,7.79
2022-11-24T17:10:19.241Z,7.39
2022-11-24T17:12:45.669Z,7.36
2022-11-24T17:18:23.378Z,7.13
2022-11-24T17:20:45.436Z,7.76
2022-11-24T17:23:12.086Z,7.30
2022-11-24T17:25:38.559Z,7.47
2022-11-24T17:28:05.099Z,7.54
2022-11-24T17:30:31.684Z,7.39
2022-11-24T17:32:58.166Z,7.52
2022-11-24T17:35:24.724Z,7.25
2022-11-24T17:37:51.214Z,7.65
2022-11-24T17:40:34.350Z,7.91
2022-11-24T17:43:01.289Z,8.07
2022-11-24T17:45:29.388Z,7.40
2022-11-24T17:48:00.776Z,7.30
2022-11-24T17:50:27.253Z,7.92
2022-11-24T17:52:54.286Z,7.97
2022-11-24T17:55:21.335Z,7.92
2022-11-24T17:57:48.830Z,7.61
2022-11-24T18:00:15.772Z,7.38
2022-11-24T18:02:42.296Z,8.08
2022-11-24T18:05:09.038Z,7.35
2022-11-24T18:07:36.796Z,7.58
2022-11-24T18:10:03.852Z,8.05
2022-11-24T18:12:30.293Z,7.67
2022-11-24T18:14:56.849Z,7.76
2022-11-24T18:17:23.336Z,7.67
2022-11-24T18:19:49.872Z,7.62
2022-11-24T18:22:16.681Z,7.91
2022-11-24T18:24:43.261Z,7.59
2022-11-24T18:27:09.798Z,7.81
2022-11-24T18:29:36.353Z,7.66
2022-11-24T18:32:04.335Z,7.82
2022-11-24T18:34:30.815Z,7.56
2022-11-24T18:36:57.239Z,8.08
2022-11-24T18:39:23.820Z,8.14
2022-11-24T18:41:50.364Z,7.57
2022-11-24T18:44:16.904Z,7.68
2022-11-24T18:46:43.395Z,7.69
2022-11-24T18:49:09.946Z,7.82
2022-11-24T18:51:36.508Z,7.82
2022-11-24T18:54:05.156Z,8.23
2022-11-24T18:56:31.720Z,7.46
2022-11-24T18:58:58.291Z,8.03
2022-11-24T19:01:27.338Z,7.80
2022-11-24T19:03:56.541Z,8.06
2022-11-24T19:06:31.773Z,7.40
2022-11-24T19:08:59.853Z,7.58
2022-11-24T19:11:35.201Z,7.47
2022-11-24T19:14:07.619Z,7.95
2022-11-24T19:16:34.941Z,7.55
2022-11-24T19:19:02.817Z,7.62
2022-11-24T19:21:34.091Z,7.75
2022-11-24T19:24:04.811Z,7.90
2022-11-24T19:26:32.097Z,7.18
2022-11-24T19:28:58.626Z,6.98
2022-11-24T19:31:25.416Z,7.13
2022-11-24T19:33:54.080Z,7.22
2022-11-24T19:36:21.969Z,7.22
2022-11-24T19:38:53.560Z,7.53
2022-11-24T19:41:23.793Z,7.46
2022-11-24T19:43:53.263Z,7.38
2022-11-24T19:46:20.521Z,7.55
2022-11-24T19:48:54.104Z,7.24
2022-11-24T19:51:22.913Z,6.77
2022-11-24T19:53:49.480Z,6.85
2022-11-24T19:56:21.716Z,6.87
2022-11-24T19:58:49.383Z,6.87
2022-11-24T20:01:30.424Z,6.81
2022-11-24T20:04:00.234Z,6.89
2022-11-24T20:06:28.888Z,6.87
2022-11-24T20:08:58.552Z,7.00
2022-11-24T20:11:25.374Z,6.99
2022-11-24T20:13:51.962Z,7.09
2022-11-24T20:16:21.044Z,6.80
2022-11-24T20:18:47.913Z,6.95
2022-11-24T20:21:18.953Z,6.80
2022-11-24T20:23:53.960Z,7.31
2022-11-24T20:26:22.991Z,6.51
2022-11-24T20:28:52.987Z,6.61
2022-11-24T20:31:22.768Z,7.12
2022-11-24T20:33:49.549Z,6.48
2022-11-24T20:36:21.914Z,6.56
2022-11-24T20:38:49.809Z,6.55
2022-11-24T20:41:20.887Z,6.72
2022-11-24T20:43:48.040Z,6.49
2022-11-24T20:46:18.339Z,7.05
2022-11-24T20:48:46.252Z,6.14
2022-11-24T20:51:21.417Z,7.09
2022-11-24T20:53:49.766Z,6.66
2022-11-24T20:56:18.847Z,6.87
2022-11-24T20:58:45.441Z,7.10
2022-11-24T21:01:15.053Z,7.53
2022-11-24T21:03:43.510Z,7.35
2022-11-24T21:06:12.083Z,7.38
2022-11-24T21:09:03.477Z,7.83
2022-11-24T21:11:32.351Z,8.09
2022-11-24T21:13:59.593Z,7.46
2022-11-24T21:16:39.325Z,8.20
2022-11-24T21:19:09.537Z,7.87
2022-11-24T21:21:37.252Z,8.07
2022-11-24T21:24:06.086Z,7.69
2022-11-24T21:26:36.932Z,7.79
2022-11-24T21:29:04.164Z,7.62
2022-11-24T21:31:30.857Z,7.80
2022-11-24T21:33:57.515Z,7.87
2022-11-24T21:36:26.339Z,8.52
2022-11-24T21:38:55.238Z,8.24
2022-11-24T21:41:23.240Z,7.81
2022-11-24T21:43:50.086Z,7.73
2022-11-24T21:46:17.047Z,8.51
2022-11-24T21:48:44.237Z,8.44
2022-11-24T21:51:13.768Z,8.01
2022-11-24T21:53:41.045Z,7.96
2022-11-24T21:56:13.093Z,7.86
2022-11-24T21:58:47.569Z,8.41
2022-11-24T22:01:15.260Z,7.97
2022-11-24T22:03:41.843Z,7.79
2022-11-24T22:06:09.331Z,7.71
2022-11-24T22:08:35.888Z,7.98
2022-11-24T22:11:13.352Z,8.01
2022-11-24T22:13:40.969Z,8.43
2022-11-24T22:16:10.218Z,7.82
2022-11-24T22:18:38.806Z,7.67
2022-11-24T22:21:07.052Z,7.86
2022-11-24T22:23:34.776Z,8.22
2022-11-24T22:26:06.630Z,8.38
2022-11-24T22:28:35.147Z,7.82
2022-11-24T22:31:10.712Z,7.91
2022-11-24T22:33:37.363Z,7.73
2022-11-24T22:36:04.393Z,7.90
2022-11-24T22:38:32.220Z,7.63
2022-11-24T22:41:10.950Z,7.91
2022-11-24T22:43:39.032Z,7.76
2022-11-24T22:46:14.207Z,8.13
2022-11-24T22:48:41.330Z,7.94
2022-11-24T22:51:12.727Z,7.83
2022-11-24T22:53:41.279Z,8.20
2022-11-24T22:56:10.450Z,7.51
2022-11-24T22:58:38.592Z,7.67
2022-11-24T23:01:05.348Z,8.32
2022-11-24T23:03:33.334Z,8.20
2022-11-24T23:06:04.772Z,7.85
2022-11-24T23:08:34.473Z,7.93
2022-11-24T23:11:03.023Z,7.45
2022-11-24T23:13:30.145Z,8.01
2022-11-24T23:16:07.495Z,8.29
2022-11-24T23:18:34.746Z,8.27
2022-11-24T23:21:12.011Z,8.03
2022-11-24T23:23:38.982Z,7.58
2022-11-24T23:26:08.302Z,7.96
2022-11-24T23:28:34.870Z,7.88
2022-11-24T23:31:06.989Z,8.39
2022-11-24T23:33:34.273Z,8.54
2022-11-24T23:36:11.309Z,8.19
2022-11-24T23:38:39.268Z,8.50
2022-11-24T23:41:09.972Z,8.00
2022-11-24T23:43:38.593Z,8.45
2022-11-24T23:46:22.774Z,8.13
2022-11-24T23:48:51.202Z,8.65
2022-11-24T23:51:18.618Z,8.79
2022-11-24T23:53:45.534Z,8.34
2022-11-24T23:56:14.487Z,7.99
2022-11-24T23:58:41.446Z,8.82
